Time;durP1;ratioP1;P1;durP2;ratioP2;P2;SDS_P1;SDS_P2;PMS_P1;PMS_P2;Temp;Humidity;BMP_temperature;BMP_pressure;BME280_temperature;BME280_humidity;BME280_pressure;Samples;Min_cycle;Max_cycle;Signal;HPM_P1;HPM_P2
2021/07/13 00:00:33;;;;;;;13.10;11.30;;;;;;;19.13;80.58;100303.58;93105;1203;74605;-67
2021/07/13 00:02:56;;;;;;;12.00;10.70;;;;;;;19.12;80.62;100301.91;93087;1208;81699;-68
2021/07/13 00:05:04;;;;;;;13.20;11.90;;;;;;;19.04;80.64;100294.10;93105;1208;66136;-68
2021/07/13 00:07:12;;;;;;;13.50;12.10;;;;;;;19.10;80.58;100295.86;93102;1209;67727;-68
2021/07/13 00:09:21;;;;;;;13.30;11.60;;;;;;;19.12;80.77;100290.95;93052;1209;86050;-66
2021/07/13 00:11:29;;;;;;;13.80;11.20;;;;;;;19.11;80.80;100278.36;93090;1209;75276;-66
2021/07/13 00:13:37;;;;;;;11.80;10.50;;;;;;;19.08;80.85;100284.33;93072;1209;80902;-67
2021/07/13 00:15:46;;;;;;;11.80;10.70;;;;;;;19.09;80.82;100276.95;93132;1207;67235;-66
2021/07/13 00:17:55;;;;;;;12.80;11.60;;;;;;;19.15;81.15;100278.67;93086;1208;67614;-65
2021/07/13 00:20:03;;;;;;;13.40;11.20;;;;;;;19.19;81.14;100283.42;93087;1208;87786;-68
2021/07/13 00:22:10;;;;;;;12.90;11.50;;;;;;;19.17;80.94;100265.58;93089;1214;74772;-67
2021/07/13 00:24:21;;;;;;;14.20;11.00;;;;;;;19.23;80.97;100270.04;93058;1215;81585;-68
2021/07/13 00:26:32;;;;;;;12.50;10.80;;;;;;;19.26;80.72;100275.86;93022;1207;68707;-69
2021/07/13 00:28:40;;;;;;;13.10;10.90;;;;;;;19.23;80.72;100270.04;93099;1208;68534;-70
2021/07/13 00:30:48;;;;;;;11.90;10.70;;;;;;;19.14;80.75;100287.98;93033;1208;86473;-69
2021/07/13 00:32:56;;;;;;;12.60;11.40;;;;;;;19.08;80.81;100276.11;93136;1207;74640;-68
2021/07/13 00:35:04;;;;;;;14.70;10.70;;;;;;;19.07;80.83;100287.30;93058;1209;82829;-66
2021/07/13 00:37:15;;;;;;;12.20;11.00;;;;;;;19.10;81.01;100287.64;93100;1208;69726;-66
2021/07/13 00:39:22;;;;;;;13.00;10.50;;;;;;;19.08;81.01;100289.80;92979;1208;68358;-68
2021/07/13 00:41:33;;;;;;;11.50;10.30;;;;;;;19.13;81.05;100297.27;93125;1208;87888;-68
2021/07/13 00:43:40;;;;;;;13.40;11.10;;;;;;;19.10;81.32;100293.12;93090;1209;75994;-68
2021/07/13 00:45:48;;;;;;;11.70;10.50;;;;;;;19.12;81.26;100295.59;93081;1203;81224;-68
2021/07/13 00:47:57;;;;;;;12.20;10.90;;;;;;;19.19;81.21;100296.28;93059;1215;68735;-68
2021/07/13 00:50:06;;;;;;;11.80;10.60;;;;;;;19.16;81.43;100283.92;93115;1208;68778;-66
2021/07/13 00:52:15;;;;;;;11.90;10.80;;;;;;;19.19;81.43;100299.02;93069;1207;87333;-66
2021/07/13 00:54:24;;;;;;;11.00;10.00;;;;;;;19.18;81.52;100306.41;93109;1208;75685;-67
2021/07/13 00:56:34;;;;;;;12.20;10.80;;;;;;;19.20;81.16;100304.23;92956;1208;80922;-66
2021/07/13 00:58:45;;;;;;;11.20;10.10;;;;;;;19.24;81.41;100310.06;93088;1208;67057;-66
2021/07/13 01:00:53;;;;;;;11.90;10.80;;;;;;;19.18;81.40;100314.62;93108;1208;69321;-68
2021/07/13 01:03:06;;;;;;;11.80;10.70;;;;;;;19.16;81.69;100335.95;93030;1208;87023;-66
2021/07/13 01:05:21;;;;;;;11.00;9.90;;;;;;;19.21;81.70;100363.42;93087;1213;76182;-66
2021/07/13 01:07:42;;;;;;;9.90;8.90;;;;;;;19.24;82.99;100354.72;93064;1208;82884;-67
2021/07/13 01:10:04;;;;;;;9.70;8.70;;;;;;;19.26;82.18;100363.52;93081;1208;67874;-66
2021/07/13 01:12:27;;;;;;;9.70;8.80;;;;;;;19.27;82.09;100364.34;93080;1208;69164;-65
2021/07/13 01:14:47;;;;;;;9.90;8.80;;;;;;;19.34;81.72;100346.67;93105;1203;86606;-67
2021/07/13 01:17:01;;;;;;;9.00;8.20;;;;;;;19.37;81.72;100354.39;93139;1209;75746;-68
2021/07/13 01:19:31;;;;;;;8.20;7.30;;;;;;;19.34;81.54;100352.15;93143;1201;80141;-65
2021/07/13 01:21:50;;;;;;;8.40;7.50;;;;;;;19.29;81.28;100357.54;92941;1208;67919;-66
2021/07/13 01:24:47;;;;;;;9.10;7.30;;;;;;;19.27;81.24;100340.53;93127;1214;68048;-66
2021/07/13 01:27:12;;;;;;;9.20;7.90;;;;;;;19.23;81.14;100320.17;92767;1211;85620;-66
2021/07/13 01:29:23;;;;;;;8.20;7.40;;;;;;;19.14;81.07;100310.73;93116;1214;75477;-66
2021/07/13 01:31:32;;;;;;;8.70;7.80;;;;;;;19.09;80.89;100296.92;93089;1209;81589;-67
2021/07/13 01:33:52;;;;;;;8.10;7.30;;;;;;;19.04;81.00;100290.52;92945;1209;66969;-66
2021/07/13 01:36:06;;;;;;;7.30;6.70;;;;;;;18.98;80.79;100289.61;93084;1214;68554;-66
2021/07/13 01:38:16;;;;;;;9.30;7.20;;;;;;;18.95;81.18;100309.30;93072;1208;87127;-66
2021/07/13 01:40:27;;;;;;;9.10;8.30;;;;;;;18.87;81.00;100295.17;93098;1214;76113;-66
2021/07/13 01:42:40;;;;;;;8.60;7.60;;;;;;;18.87;81.29;100289.69;93062;1209;80233;-66
2021/07/13 01:44:51;;;;;;;9.10;7.50;;;;;;;18.85;80.99;100290.76;93093;1208;68029;-67
2021/07/13 01:46:59;;;;;;;8.50;7.40;;;;;;;18.79;81.09;100286.26;93128;1203;69275;-67
2021/07/13 01:49:07;;;;;;;8.50;7.70;;;;;;;18.75;81.25;100285.11;93098;1208;86008;-67
2021/07/13 01:51:16;;;;;;;8.90;8.00;;;;;;;18.79;81.38;100291.73;93090;1209;75016;-67
2021/07/13 01:53:27;;;;;;;9.80;8.40;;;;;;;18.79;81.60;100293.63;93049;1208;80611;-68
2021/07/13 01:55:38;;;;;;;9.60;8.70;;;;;;;18.83;81.34;100298.39;93089;1208;67341;-67
2021/07/13 01:57:46;;;;;;;8.80;7.70;;;;;;;18.84;81.48;100304.70;93136;1208;70110;-67
2021/07/13 01:59:54;;;;;;;9.40;8.00;;;;;;;18.80;81.44;100303.52;93059;1213;87285;-66
2021/07/13 02:02:05;;;;;;;9.10;7.50;;;;;;;18.75;81.36;100306.16;93084;1214;73676;-66
2021/07/13 02:04:14;;;;;;;8.30;7.10;;;;;;;18.75;81.42;100301.53;93046;1209;82427;-65
2021/07/13 02:06:26;;;;;;;8.00;7.20;;;;;;;18.79;81.57;100289.00;93120;1203;68472;-65
2021/07/13 02:08:40;;;;;;;8.00;6.80;;;;;;;18.79;81.60;100269.00;93091;1208;67626;-66
2021/07/13 02:10:51;;;;;;;8.40;7.40;;;;;;;18.81;81.49;100262.23;93100;1208;87692;-67
2021/07/13 02:12:59;;;;;;;13.00;7.90;;;;;;;18.82;81.71;100273.98;92882;1208;76082;-67
2021/07/13 02:15:09;;;;;;;10.60;7.90;;;;;;;18.86;81.72;100280.64;93066;1215;81889;-66
2021/07/13 02:17:17;;;;;;;8.60;7.20;;;;;;;18.90;81.97;100300.95;93051;1208;68797;-67
2021/07/13 02:19:26;;;;;;;9.70;7.60;;;;;;;18.93;81.68;100281.30;93067;1215;67777;-66
2021/07/13 02:21:33;;;;;;;9.00;7.30;;;;;;;18.96;81.80;100269.03;93094;1209;86436;-66
2021/07/13 02:23:42;;;;;;;11.50;8.30;;;;;;;18.95;81.76;100260.02;93056;1208;74458;-67
2021/07/13 02:25:55;;;;;;;9.60;8.60;;;;;;;18.91;82.03;100233.36;93090;1215;82015;-66
2021/07/13 02:28:11;;;;;;;9.80;8.80;;;;;;;18.88;81.98;100223.73;93065;1208;66028;-67
2021/07/13 02:30:22;;;;;;;9.50;8.50;;;;;;;18.80;82.16;100219.50;93087;1208;69688;-67
2021/07/13 02:32:38;;;;;;;8.20;7.50;;;;;;;18.81;82.32;100223.08;93091;1209;86304;-67
2021/07/13 02:34:49;;;;;;;10.60;8.90;;;;;;;18.87;81.95;100232.20;93077;1209;74747;-66
2021/07/13 02:37:01;;;;;;;8.90;8.00;;;;;;;18.94;82.00;100238.34;93056;1209;82509;-66
2021/07/13 02:39:10;;;;;;;10.00;8.40;;;;;;;19.05;82.02;100230.05;93131;1208;66964;-65
2021/07/13 02:41:19;;;;;;;9.20;8.20;;;;;;;19.12;82.16;100244.40;93075;1204;70460;-66
2021/07/13 02:43:31;;;;;;;8.50;7.70;;;;;;;19.14;82.31;100263.34;93060;1208;86799;-66
2021/07/13 02:45:40;;;;;;;8.50;7.60;;;;;;;19.21;82.53;100338.77;93093;1208;74290;-67
2021/07/13 02:47:55;;;;;;;9.40;8.20;;;;;;;19.23;82.39;100413.30;93074;1208;81689;-67
2021/07/13 02:50:06;;;;;;;8.40;7.50;;;;;;;19.14;82.62;100414.80;93038;1209;66827;-65
2021/07/13 02:52:16;;;;;;;6.30;5.50;;;;;;;19.05;82.04;100388.88;93080;1208;69177;-66
2021/07/13 02:54:28;;;;;;;6.20;5.10;;;;;;;18.99;81.73;100425.44;93075;1208;86542;-66
2021/07/13 02:56:37;;;;;;;5.80;4.90;;;;;;;18.94;81.48;100430.81;93080;1208;74300;-67
2021/07/13 02:58:49;;;;;;;5.60;4.80;;;;;;;18.92;81.61;100421.19;93076;1209;81282;-67
2021/07/13 03:00:58;;;;;;;6.40;4.10;;;;;;;18.87;81.45;100382.77;92841;1213;68391;-64
2021/07/13 03:03:06;;;;;;;7.70;5.10;;;;;;;18.86;81.83;100357.29;93094;1208;69437;-60
2021/07/13 03:05:17;;;;;;;6.00;4.50;;;;;;;18.88;81.67;100360.61;93047;1207;85587;-64
2021/07/13 03:07:26;;;;;;;6.80;4.50;;;;;;;18.86;81.69;100368.24;92979;1215;75039;-64
2021/07/13 03:09:37;;;;;;;6.00;4.40;;;;;;;18.86;81.76;100370.98;93073;1209;81445;-64
2021/07/13 03:11:45;;;;;;;8.30;4.20;;;;;;;18.84;81.47;100351.23;93072;1203;68712;-64
2021/07/13 03:13:54;;;;;;;6.30;3.70;;;;;;;18.79;81.49;100338.27;93071;1208;68580;-64
2021/07/13 03:16:05;;;;;;;7.40;3.70;;;;;;;18.75;81.86;100341.74;93103;1203;85820;-63
2021/07/13 03:18:13;;;;;;;3.90;3.40;;;;;;;18.74;81.83;100370.17;93074;1215;74957;-64
2021/07/13 03:20:21;;;;;;;5.00;3.60;;;;;;;18.77;81.56;100353.27;93098;1208;80843;-60
2021/07/13 03:22:36;;;;;;;4.30;3.60;;;;;;;18.74;81.49;100342.80;93087;1209;65353;-61
2021/07/13 03:24:44;;;;;;;5.30;3.90;;;;;;;18.69;81.40;100349.02;93078;1209;69073;-64
2021/07/13 03:26:53;;;;;;;6.10;3.60;;;;;;;18.62;81.52;100351.05;93082;1204;87224;-64
2021/07/13 03:29:02;;;;;;;4.50;3.90;;;;;;;18.65;81.51;100345.09;92956;1209;75783;-61
2021/07/13 03:31:11;;;;;;;5.00;3.90;;;;;;;18.70;81.72;100338.91;93072;1208;81512;-62
2021/07/13 03:33:22;;;;;;;5.30;4.20;;;;;;;18.71;81.48;100326.87;93087;1209;65349;-62
2021/07/13 03:35:34;;;;;;;4.90;4.10;;;;;;;18.66;81.80;100319.41;93065;1213;69201;-63
2021/07/13 03:37:42;;;;;;;4.30;3.90;;;;;;;18.66;81.52;100311.20;93067;1214;87130;-65
2021/07/13 03:39:52;;;;;;;5.40;3.80;;;;;;;18.68;81.91;100308.20;92959;1206;74174;-64
2021/07/13 03:42:01;;;;;;;6.10;4.40;;;;;;;18.72;81.80;100317.59;93062;1208;80214;-66
2021/07/13 03:44:10;;;;;;;7.10;4.30;;;;;;;18.68;82.03;100309.03;93095;1208;66406;-66
2021/07/13 03:46:18;;;;;;;5.90;4.80;;;;;;;18.69;82.08;100293.45;93108;1209;69330;-67
2021/07/13 03:48:26;;;;;;;5.60;4.60;;;;;;;18.72;81.82;100285.59;93107;1208;87094;-66
2021/07/13 03:50:36;;;;;;;7.80;5.20;;;;;;;18.78;81.80;100283.78;93108;1209;76598;-68
2021/07/13 03:52:44;;;;;;;9.20;4.80;;;;;;;18.84;82.08;100278.14;93094;1209;80610;-67
2021/07/13 03:54:52;;;;;;;12.20;6.30;;;;;;;19.13;82.10;100269.88;92859;1215;67863;-67
2021/07/13 03:57:00;;;;;;;7.60;5.30;;;;;;;19.26;81.85;100275.86;93094;1209;69785;-67
2021/07/13 03:59:11;;;;;;;6.30;5.20;;;;;;;19.27;81.79;100263.84;93054;1207;85792;-67
2021/07/13 04:01:18;;;;;;;5.10;4.60;;;;;;;19.26;81.81;100253.95;93049;1214;75455;-67
2021/07/13 04:03:26;;;;;;;6.10;4.70;;;;;;;19.32;81.75;100261.17;93068;1208;82816;-67
2021/07/13 04:05:35;;;;;;;6.30;4.70;;;;;;;19.40;81.84;100249.83;93047;1208;67170;-67
2021/07/13 04:07:43;;;;;;;4.40;4.00;;;;;;;19.45;81.93;100262.76;93116;1203;70201;-67
2021/07/13 04:09:50;;;;;;;6.80;4.70;;;;;;;19.52;81.65;100265.34;93095;1214;86345;-67
2021/07/13 04:11:58;;;;;;;5.70;4.70;;;;;;;19.74;82.01;100258.00;93097;1215;74594;-67
2021/07/13 04:14:06;;;;;;;5.90;4.50;;;;;;;20.37;82.09;100255.57;93076;1209;79967;-67
2021/07/13 04:16:15;;;;;;;5.90;4.20;;;;;;;20.86;81.50;100252.78;93082;1208;67122;-69
2021/07/13 04:18:22;;;;;;;5.40;4.70;;;;;;;20.86;80.73;100255.53;93078;1208;69279;-67
2021/07/13 04:20:30;;;;;;;6.00;4.80;;;;;;;20.73;80.65;100250.46;93113;1208;88073;-65
2021/07/13 04:22:41;;;;;;;6.40;4.90;;;;;;;20.56;80.46;100236.84;93072;1215;75389;-67
2021/07/13 04:24:48;;;;;;;5.20;4.60;;;;;;;20.47;80.32;100228.23;93112;1208;82633;-66
2021/07/13 04:26:56;;;;;;;6.70;5.10;;;;;;;20.37;80.31;100233.63;93076;1208;67601;-66
2021/07/13 04:29:04;;;;;;;7.20;5.40;;;;;;;20.35;80.57;100216.59;93110;1215;68345;-66
2021/07/13 04:31:11;;;;;;;5.90;4.90;;;;;;;20.35;80.49;100219.34;93093;1207;85287;-66
2021/07/13 04:33:21;;;;;;;8.30;5.40;;;;;;;20.36;80.50;100220.14;93120;1209;75448;-66
2021/07/13 04:35:29;;;;;;;7.50;5.70;;;;;;;20.34;80.51;100219.58;93082;1208;81785;-66
2021/07/13 04:37:39;;;;;;;6.70;5.30;;;;;;;20.31;80.35;100229.16;93072;1208;66129;-66
2021/07/13 04:39:47;;;;;;;9.10;6.20;;;;;;;20.25;80.47;100223.85;92961;1208;69028;-66
2021/07/13 04:41:55;;;;;;;6.80;5.30;;;;;;;20.23;80.55;100226.00;93086;1208;86059;-66
2021/07/13 04:44:03;;;;;;;6.20;5.40;;;;;;;20.24;80.58;100217.56;93079;1209;73427;-66
2021/07/13 04:46:11;;;;;;;6.80;5.60;;;;;;;20.19;80.64;100213.90;92963;1208;81742;-66
2021/07/13 04:48:19;;;;;;;7.10;5.50;;;;;;;20.21;80.70;100198.00;93071;1208;65696;-67
2021/07/13 04:50:26;;;;;;;7.80;5.90;;;;;;;20.22;80.65;100166.72;93093;1209;70460;-67
2021/07/13 04:52:34;;;;;;;7.10;5.80;;;;;;;20.22;80.84;100169.47;93079;1208;86159;-67
2021/07/13 04:54:41;;;;;;;6.80;6.00;;;;;;;20.21;80.96;100176.89;93119;1203;75576;-65
2021/07/13 04:56:49;;;;;;;7.70;5.90;;;;;;;20.21;80.91;100174.15;93072;1208;80028;-65
2021/07/13 04:58:57;;;;;;;9.90;7.50;;;;;;;20.31;81.10;100168.80;93103;1209;66268;-67
2021/07/13 05:01:05;;;;;;;9.70;8.60;;;;;;;20.33;80.94;100150.14;93105;1207;67857;-68
2021/07/13 05:03:12;;;;;;;11.60;7.60;;;;;;;20.32;81.37;100145.77;93072;1208;87698;-68
2021/07/13 05:05:23;;;;;;;10.80;7.80;;;;;;;20.29;81.55;100127.08;93057;1209;74713;-67
2021/07/13 05:07:31;;;;;;;11.10;9.50;;;;;;;20.25;81.89;100114.95;93069;1213;80611;-67
2021/07/13 05:09:38;;;;;;;13.30;9.50;;;;;;;20.33;81.58;100128.20;93107;1203;67517;-68
2021/07/13 05:11:46;;;;;;;11.50;8.90;;;;;;;20.43;81.84;100133.80;93124;1209;68534;-68
2021/07/13 05:13:54;;;;;;;11.10;8.40;;;;;;;20.54;81.55;100137.47;93088;1209;86177;-66
2021/07/13 05:16:05;;;;;;;7.80;7.00;;;;;;;20.66;81.61;100140.05;93102;1209;75312;-67
2021/07/13 05:18:15;;;;;;;9.50;7.40;;;;;;;20.76;81.54;100156.59;93094;1209;81640;-67
2021/07/13 05:20:23;;;;;;;9.30;7.60;;;;;;;20.86;81.35;100163.00;93060;1209;67205;-68
2021/07/13 05:22:34;;;;;;;14.80;9.80;;;;;;;20.95;81.09;100169.67;93104;1214;69711;-68
2021/07/13 05:24:44;;;;;;;10.40;8.60;;;;;;;20.92;80.89;100170.19;93085;1214;86420;-67
2021/07/13 05:26:55;;;;;;;9.70;7.80;;;;;;;20.91;80.85;100174.02;93077;1215;75383;-66
2021/07/13 05:29:07;;;;;;;8.80;7.20;;;;;;;20.96;80.64;100176.80;93083;1208;81127;-66
2021/07/13 05:31:15;;;;;;;9.50;7.40;;;;;;;21.04;80.45;100170.81;93028;1209;68506;-66
2021/07/13 05:33:22;;;;;;;12.40;8.30;;;;;;;21.36;81.65;100145.24;93106;1209;69918;-66
2021/07/13 05:35:30;;;;;;;10.30;7.90;;;;;;;22.16;80.94;100147.55;93079;1208;85933;-66
2021/07/13 05:37:38;;;;;;;9.50;7.80;;;;;;;22.60;79.79;100134.13;93059;1209;75586;-66
2021/07/13 05:39:49;;;;;;;9.00;7.30;;;;;;;22.51;79.54;100136.59;93085;1215;80123;-66
2021/07/13 05:42:00;;;;;;;8.00;6.80;;;;;;;22.41;79.05;100127.50;93053;1209;65335;-66
2021/07/13 05:44:08;;;;;;;12.10;7.60;;;;;;;22.36;78.84;100131.06;93070;1208;69381;-67
2021/07/13 05:46:16;;;;;;;9.70;8.20;;;;;;;22.77;79.46;100131.97;93072;1208;86416;-67
2021/07/13 05:48:23;;;;;;;10.10;7.60;;;;;;;22.83;78.75;100136.35;93080;1208;74489;-67
2021/07/13 05:50:32;;;;;;;10.40;8.00;;;;;;;22.81;78.40;100149.58;93047;1208;79973;-67
2021/07/13 05:52:40;;;;;;;10.40;7.80;;;;;;;22.71;78.29;100155.93;93074;1209;67167;-66
2021/07/13 05:54:47;;;;;;;19.70;9.60;;;;;;;22.70;77.82;100148.76;93103;1214;68879;-67
2021/07/13 05:56:55;;;;;;;17.00;10.10;;;;;;;22.62;78.13;100168.55;93063;1214;86047;-66
2021/07/13 05:59:03;;;;;;;12.00;9.50;;;;;;;22.58;77.86;100177.64;93090;1209;74813;-66
2021/07/13 06:01:13;;;;;;;13.30;7.90;;;;;;;22.73;77.92;100185.94;93069;1209;81453;-66
2021/07/13 06:03:24;;;;;;;9.50;7.70;;;;;;;24.15;78.65;100183.77;92929;1213;68129;-67
2021/07/13 06:05:32;;;;;;;9.80;7.90;;;;;;;25.23;76.86;100188.01;93081;1207;69168;-66
2021/07/13 06:07:47;;;;;;;10.70;7.80;;;;;;;26.02;75.61;100189.37;93087;1208;86596;-67
2021/07/13 06:09:56;;;;;;;9.00;8.00;;;;;;;25.87;74.88;100194.28;93066;1215;75202;-68
2021/07/13 06:12:07;;;;;;;8.30;7.40;;;;;;;25.66;74.18;100188.14;93066;1215;81627;-67
2021/07/13 06:14:15;;;;;;;9.50;8.40;;;;;;;25.35;73.69;100189.56;92999;1208;66531;-66
2021/07/13 06:16:23;;;;;;;9.70;8.00;;;;;;;24.98;74.05;100185.46;93110;1207;68357;-67
2021/07/13 06:18:31;;;;;;;9.30;7.50;;;;;;;26.09;74.38;100180.71;93056;1209;86331;-66
2021/07/13 06:20:41;;;;;;;8.40;7.30;;;;;;;26.29;72.71;100177.67;93076;1209;75765;-66
2021/07/13 06:22:52;;;;;;;7.70;6.40;;;;;;;27.77;72.02;100186.06;93043;1209;81293;-65
2021/07/13 06:24:59;;;;;;;9.30;6.00;;;;;;;28.36;69.32;100188.70;93100;1208;67902;-66
2021/07/13 06:27:07;;;;;;;6.70;5.70;;;;;;;27.98;68.40;100198.40;93089;1208;67751;-68
2021/07/13 06:29:15;;;;;;;6.70;5.70;;;;;;;28.58;68.15;100197.09;93076;1206;85981;-66
2021/07/13 06:31:22;;;;;;;7.20;5.40;;;;;;;28.29;66.97;100193.88;92931;1208;76626;-65
2021/07/13 06:33:33;;;;;;;7.80;5.90;;;;;;;27.55;66.27;100205.38;93095;1214;81605;-66
2021/07/13 06:35:45;;;;;;;6.70;6.10;;;;;;;26.64;66.69;100227.07;93105;1209;65531;-66
2021/07/13 06:37:57;;;;;;;8.20;5.90;;;;;;;25.94;67.59;100237.09;93113;1208;68883;-66
2021/07/13 06:40:06;;;;;;;7.30;6.20;;;;;;;25.23;68.88;100240.55;93119;1209;86482;-65
2021/07/13 06:42:16;;;;;;;6.70;5.90;;;;;;;24.75;69.59;100249.70;93131;1215;75087;-65
2021/07/13 06:44:28;;;;;;;6.70;5.70;;;;;;;24.38;70.03;100247.45;93121;1209;80999;-65
2021/07/13 06:46:35;;;;;;;6.50;5.90;;;;;;;24.10;70.83;100250.05;93113;1204;67552;-65
2021/07/13 06:48:44;;;;;;;7.70;6.20;;;;;;;23.80;71.32;100229.70;93073;1208;68390;-64
2021/07/13 06:50:51;;;;;;;8.00;5.90;;;;;;;23.67;71.79;100233.05;93092;1208;86983;-62
2021/07/13 06:52:59;;;;;;;6.80;6.10;;;;;;;23.73;71.77;100229.17;93100;1215;75537;-66
2021/07/13 06:55:12;;;;;;;7.20;6.40;;;;;;;23.82;71.93;100223.88;93085;1208;81765;-67
2021/07/13 06:57:21;;;;;;;9.20;8.30;;;;;;;24.08;72.52;100217.19;93085;1209;66539;-67
2021/07/13 06:59:29;;;;;;;8.00;6.80;;;;;;;24.65;72.22;100216.63;93098;1207;68809;-67
2021/07/13 07:01:37;;;;;;;7.70;6.50;;;;;;;25.25;71.61;100212.59;93063;1209;87748;-67
2021/07/13 07:03:45;;;;;;;7.40;6.70;;;;;;;25.52;71.34;100209.34;93078;1209;74371;-66
2021/07/13 07:05:53;;;;;;;7.40;6.60;;;;;;;25.42;70.80;100217.69;93053;1208;79660;-65
2021/07/13 07:08:01;;;;;;;7.20;6.50;;;;;;;25.44;70.39;100227.34;93095;1207;66299;-65
2021/07/13 07:10:11;;;;;;;7.00;6.30;;;;;;;25.29;70.44;100227.50;93048;1209;68453;-65
2021/07/13 07:12:22;;;;;;;8.40;6.90;;;;;;;25.30;70.86;100244.92;93096;1208;86597;-66
2021/07/13 07:14:29;;;;;;;7.00;6.40;;;;;;;25.20;70.48;100243.05;93067;1208;73717;-65
2021/07/13 07:16:37;;;;;;;7.40;6.70;;;;;;;25.00;71.40;100259.79;93097;1208;80635;-66
2021/07/13 07:18:48;;;;;;;6.70;6.00;;;;;;;24.77;71.84;100253.03;93073;1208;67810;-66
2021/07/13 07:20:55;;;;;;;7.80;6.90;;;;;;;24.55;72.04;100256.20;93132;1209;69467;-67
2021/07/13 07:23:03;;;;;;;8.50;6.90;;;;;;;24.43;72.53;100252.11;93070;1209;86255;-67
2021/07/13 07:25:13;;;;;;;7.50;6.70;;;;;;;24.34;72.51;100224.26;93068;1208;75387;-67
2021/07/13 07:27:21;;;;;;;7.60;6.60;;;;;;;24.17;73.11;100232.09;93093;1209;81029;-67
2021/07/13 07:29:28;;;;;;;7.40;6.60;;;;;;;24.14;73.20;100209.74;93066;1209;65899;-66
2021/07/13 07:31:36;;;;;;;8.10;6.80;;;;;;;24.07;73.10;100205.31;93088;1208;68005;-66
2021/07/13 07:33:46;;;;;;;7.90;7.10;;;;;;;23.86;72.59;100197.40;93065;1209;87167;-67
2021/07/13 07:35:53;;;;;;;8.40;7.60;;;;;;;23.76;73.01;100201.00;93088;1209;75290;-66
2021/07/13 07:38:02;;;;;;;10.00;8.00;;;;;;;23.74;73.22;100188.59;93040;1209;81155;-66
2021/07/13 07:40:17;;;;;;;8.30;7.40;;;;;;;23.72;73.42;100182.55;93052;1209;66591;-66
2021/07/13 07:42:24;;;;;;;10.60;7.70;;;;;;;23.68;73.62;100200.78;93099;1203;69933;-70
2021/07/13 07:44:35;;;;;;;9.60;8.70;;;;;;;23.51;73.65;100192.82;93071;1209;85514;-69
2021/07/13 07:46:43;;;;;;;9.40;8.30;;;;;;;23.41;73.70;100198.34;93088;1208;75346;-65
2021/07/13 07:48:51;;;;;;;10.80;8.20;;;;;;;23.34;74.30;100190.34;93077;1209;80522;-67
2021/07/13 07:50:58;;;;;;;8.80;7.90;;;;;;;23.32;74.68;100202.75;93077;1208;67017;-68
2021/07/13 07:53:06;;;;;;;12.60;8.70;;;;;;;23.35;74.86;100182.87;93108;1209;69064;-68
2021/07/13 07:55:19;;;;;;;10.20;8.10;;;;;;;23.37;74.62;100164.14;93084;1209;87160;-68
2021/07/13 07:57:26;;;;;;;9.90;8.20;;;;;;;23.60;74.94;100158.03;93061;1204;76155;-68
2021/07/13 07:59:34;;;;;;;8.50;7.70;;;;;;;24.06;75.18;100166.97;93110;1209;80253;-70
2021/07/13 08:01:42;;;;;;;8.50;7.80;;;;;;;24.43;74.58;100170.09;93090;1207;67083;-66
2021/07/13 08:03:52;;;;;;;8.40;7.50;;;;;;;24.69;74.46;100165.22;93101;1209;67916;-66
2021/07/13 08:06:00;;;;;;;12.90;8.90;;;;;;;24.74;73.73;100156.06;93072;1207;86401;-64
2021/07/13 08:08:11;;;;;;;13.30;10.30;;;;;;;24.60;72.92;100158.66;93051;1208;74583;-64
2021/07/13 08:10:22;;;;;;;12.30;9.80;;;;;;;24.54;72.80;100173.61;93052;1207;81313;-64
2021/07/13 08:12:33;;;;;;;12.30;10.10;;;;;;;24.46;72.62;100172.28;93062;1208;66310;-66
2021/07/13 08:14:41;;;;;;;17.50;11.60;;;;;;;24.28;72.30;100172.92;93097;1209;69378;-67
2021/07/13 08:16:53;;;;;;;12.40;10.20;;;;;;;24.20;72.16;100168.00;93074;1209;84980;-68
2021/07/13 08:19:01;;;;;;;10.10;8.60;;;;;;;24.05;72.72;100185.45;93090;1208;76322;-68
2021/07/13 08:21:09;;;;;;;11.20;8.30;;;;;;;23.98;72.68;100182.16;93092;1207;80576;-68
2021/07/13 08:23:16;;;;;;;9.10;8.10;;;;;;;23.94;72.52;100191.30;93051;1214;68861;-65
2021/07/13 08:25:27;;;;;;;9.80;8.00;;;;;;;23.89;72.65;100186.63;93078;1209;70356;-66
2021/07/13 08:27:34;;;;;;;8.60;7.80;;;;;;;23.87;73.15;100204.58;93055;1209;86654;-64
2021/07/13 08:29:45;;;;;;;10.20;8.70;;;;;;;23.98;73.66;100201.48;93099;1208;75252;-65
2021/07/13 08:31:56;;;;;;;9.60;8.60;;;;;;;24.52;74.07;100197.94;93061;1209;80086;-65
2021/07/13 08:34:04;;;;;;;8.90;8.10;;;;;;;24.97;73.52;100203.15;93050;1209;67360;-66
2021/07/13 08:36:13;;;;;;;9.10;8.20;;;;;;;25.25;73.55;100190.47;93118;1209;69532;-64
2021/07/13 08:38:24;;;;;;;9.60;8.70;;;;;;;25.20;72.60;100196.05;93091;1209;86605;-65
2021/07/13 08:40:35;;;;;;;9.80;8.50;;;;;;;24.84;71.57;100192.75;93114;1214;74481;-68
2021/07/13 08:42:47;;;;;;;10.10;7.50;;;;;;;24.45;72.20;100192.72;93108;1207;80264;-68
2021/07/13 08:44:54;;;;;;;9.10;8.30;;;;;;;24.17;71.64;100182.41;93031;1209;66124;-64
2021/07/13 08:47:03;;;;;;;9.20;8.30;;;;;;;23.88;72.01;100184.14;93112;1207;68623;-64
2021/07/13 08:49:13;;;;;;;11.60;9.70;;;;;;;23.80;72.36;100207.63;93077;1208;86148;-65
2021/07/13 08:51:21;;;;;;;12.90;8.60;;;;;;;23.66;72.92;100214.83;93068;1209;74477;-64
2021/07/13 08:53:31;;;;;;;9.40;8.40;;;;;;;23.57;73.49;100255.11;93063;1208;82617;-64
2021/07/13 08:55:41;;;;;;;10.00;8.30;;;;;;;23.45;73.46;100251.84;93099;1209;67644;-68
2021/07/13 08:57:49;;;;;;;9.90;7.90;;;;;;;23.38;73.90;100238.32;93094;1214;68091;-69
2021/07/13 08:59:57;;;;;;;10.60;8.30;;;;;;;23.31;74.34;100245.20;93075;1208;87305;-69
2021/07/13 09:02:05;;;;;;;8.80;7.90;;;;;;;23.27;73.97;100222.86;93111;1208;74116;-67
2021/07/13 09:04:16;;;;;;;9.40;8.50;;;;;;;23.14;74.53;100217.08;93085;1213;82517;-67
2021/07/13 09:06:25;;;;;;;11.10;8.70;;;;;;;23.08;74.83;100221.77;93094;1202;68217;-67
2021/07/13 09:08:35;;;;;;;9.30;8.00;;;;;;;23.07;75.04;100233.91;93122;1208;70523;-67
2021/07/13 09:10:58;;;;;;;9.50;8.30;;;;;;;22.98;75.69;100221.77;93065;1208;87174;-72
2021/07/13 09:13:06;;;;;;;10.00;8.20;;;;;;;22.94;75.74;100206.88;93097;1204;74750;-72
2021/07/13 09:15:17;;;;;;;9.40;8.50;;;;;;;22.98;76.05;100193.38;92953;1208;80922;-63
2021/07/13 09:17:40;;;;;;;10.70;9.50;;;;;;;23.10;76.24;100185.68;93048;1209;67059;-72
2021/07/13 09:20:08;;;;;;;12.50;9.90;;;;;;;23.20;76.54;100144.31;93136;1208;69046;-71
2021/07/13 09:22:25;;;;;;;7.30;6.60;;;;;;;23.30;76.92;100095.50;93053;1208;86812;-68
2021/07/13 09:24:36;;;;;;;9.10;7.60;;;;;;;23.37;77.02;100120.03;93088;1209;74652;-69
2021/07/13 09:26:56;;;;;;;9.60;7.60;;;;;;;23.57;76.45;100164.09;93037;1209;81422;-67
2021/07/13 09:29:07;;;;;;;8.30;7.20;;;;;;;23.91;76.53;100187.17;93120;1204;66892;-64
2021/07/13 09:31:16;;;;;;;11.40;7.50;;;;;;;24.17;75.80;100179.64;93087;1215;68783;-63
2021/07/13 09:33:27;;;;;;;10.50;8.20;;;;;;;24.56;76.12;100168.61;93085;1208;86960;-64
2021/07/13 09:35:35;;;;;;;9.20;7.90;;;;;;;24.92;75.10;100181.08;93104;1208;75214;-64
2021/07/13 09:37:47;;;;;;;8.70;7.90;;;;;;;25.41;75.08;100204.99;93091;1204;81458;-65
2021/07/13 09:40:10;;;;;;;8.20;7.40;;;;;;;25.77;74.81;100187.73;93114;1209;68311;-70
2021/07/13 09:42:25;;;;;;;8.80;8.00;;;;;;;26.00;74.79;100197.16;93173;1208;67902;-70
2021/07/13 09:44:35;;;;;;;9.10;7.30;;;;;;;26.31;73.68;100190.14;92805;1211;87270;-65
2021/07/13 09:46:45;;;;;;;9.70;7.50;;;;;;;26.16;73.53;100178.42;93107;1209;76086;-66
2021/07/13 09:49:20;;;;;;;7.90;7.10;;;;;;;26.19;73.26;100177.83;93098;1209;80719;-65
2021/07/13 09:51:30;;;;;;;6.90;6.30;;;;;;;26.31;73.22;100170.75;93010;1208;67450;-65
2021/07/13 09:53:38;;;;;;;7.20;5.70;;;;;;;26.48;72.23;100172.17;93098;1208;70143;-65
2021/07/13 09:55:51;;;;;;;6.50;5.80;;;;;;;26.43;71.69;100175.82;93113;1203;86935;-64
2021/07/13 09:58:15;;;;;;;5.90;5.30;;;;;;;26.26;70.63;100175.53;93091;1208;74161;-64
2021/07/13 10:00:23;;;;;;;6.60;5.50;;;;;;;26.04;71.31;100164.97;93109;1208;79756;-65
2021/07/13 10:02:31;;;;;;;6.60;5.20;;;;;;;25.75;69.55;100165.07;93089;1209;67650;-64